Time;durP1;ratioP1;P1;durP2;ratioP2;P2;SDS_P1;SDS_P2;PMS_P1;PMS_P2;Temp;Humidity;BMP_temperature;BMP_pressure;BME280_temperature;BME280_humidity;BME280_pressure;Samples;Min_cycle;Max_cycle;Signal;HPM_P1;HPM_P2
2023/01/25 04:02:04;;;;;;;;;;;1.20;99.90;;;;;;5490929;22;19988;-70
2023/01/25 04:04:31;;;;;;;;;;;1.20;99.90;;;;;;4995959;28;20421;-69
2023/01/25 04:06:58;;;;;;;;;;;1.20;99.90;;;;;;5001909;28;20025;-70
2023/01/25 04:09:25;;;;;;;;;;;1.20;99.90;;;;;;5003162;28;19926;-69
2023/01/25 04:11:55;;;;;;;;;;;1.20;99.90;;;;;;4988011;28;20304;-70
2023/01/25 04:14:21;;;;;;;;;;;1.20;99.90;;;;;;4973161;28;20017;-70
2023/01/25 04:16:57;;;;;;;;;;;1.20;99.90;;;;;;4975479;28;19926;-70
2023/01/25 04:19:25;;;;;;;;;;;1.20;99.90;;;;;;4988788;28;20020;-69
2023/01/25 04:21:54;;;;;;;;;;;1.20;99.90;;;;;;4986450;28;19926;-70
2023/01/25 04:24:23;;;;;;;;;;;1.20;99.90;;;;;;4987238;28;20022;-70
2023/01/25 04:26:50;;;;;;;;;;;1.20;99.90;;;;;;4983357;28;19934;-69
2023/01/25 04:29:16;;;;;;;;;;;1.20;99.90;;;;;;4989770;28;19926;-69
2023/01/25 04:31:43;;;;;;;;;;;1.20;99.90;;;;;;4989023;28;19925;-70
2023/01/25 04:34:10;;;;;;;;;;;1.10;99.90;;;;;;4992105;28;20021;-67
2023/01/25 04:36:38;;;;;;;;;;;1.10;99.90;;;;;;4984783;28;20013;-70
2023/01/25 04:39:05;;;;;;;;;;;1.10;99.90;;;;;;4978636;28;19933;-69
2023/01/25 04:41:32;;;;;;;;;;;1.10;99.90;;;;;;4990599;28;19926;-69
2023/01/25 04:43:58;;;;;;;;;;;1.10;99.90;;;;;;4987672;28;19933;-68
2023/01/25 04:46:25;;;;;;;;;;;1.10;99.90;;;;;;4982367;28;19948;-70
2023/01/25 04:48:53;;;;;;;;;;;1.10;99.90;;;;;;4989263;28;20403;-69
2023/01/25 04:51:20;;;;;;;;;;;1.10;99.90;;;;;;4985022;28;20304;-70
2023/01/25 04:53:48;;;;;;;;;;;1.10;99.90;;;;;;4990334;28;20028;-70
2023/01/25 04:56:15;;;;;;;;;;;1.10;99.90;;;;;;4986261;28;19927;-69
2023/01/25 04:58:51;;;;;;;;;;;1.20;99.90;;;;;;4990823;28;19996;-68
2023/01/25 05:01:18;;;;;;;;;;;1.10;99.90;;;;;;4966586;28;20013;-70
2023/01/25 05:03:45;;;;;;;;;;;1.10;99.90;;;;;;4991484;28;19976;-71
2023/01/25 05:06:23;;;;;;;;;;;1.10;99.90;;;;;;4986427;28;19989;-70
2023/01/25 05:08:51;;;;;;;;;;;1.10;99.90;;;;;;4987243;28;20316;-68
2023/01/25 05:11:19;;;;;;;;;;;1.00;99.90;;;;;;4988467;28;19926;-70
2023/01/25 05:13:48;;;;;;;;;;;1.00;99.90;;;;;;4989521;28;20389;-70
2023/01/25 05:16:23;;;;;;;;;;;1.00;99.90;;;;;;4989705;28;20312;-68
2023/01/25 05:18:50;;;;;;;;;;;0.90;99.90;;;;;;4982222;28;19985;-68
2023/01/25 05:24:07;;;;;;;;;;;0.90;99.90;;;;;;4982288;28;19996;-70
2023/01/25 05:29:19;;;;;;;;;;;0.80;99.90;;;;;;4970288;28;19929;-71
2023/01/25 05:31:52;;;;;;;;;;;0.90;99.90;;;;;;4992450;28;20332;-69
2023/01/25 05:34:19;;;;;;;;;;;0.90;99.90;;;;;;4987876;28;19926;-69
2023/01/25 05:36:46;;;;;;;;;;;0.90;99.90;;;;;;4979602;28;19934;-71
2023/01/25 05:39:15;;;;;;;;;;;0.90;99.90;;;;;;4976048;28;19926;-70
2023/01/25 05:41:44;;;;;;;;;;;0.90;99.90;;;;;;4987133;28;19926;-70
2023/01/25 05:44:11;;;;;;;;;;;1.00;99.90;;;;;;4988622;28;19926;-70
2023/01/25 05:46:45;;;;;;;;;;;1.00;99.90;;;;;;4992155;28;19926;-70
2023/01/25 05:49:12;;;;;;;;;;;1.00;99.90;;;;;;4989752;28;19930;-70
2023/01/25 05:51:41;;;;;;;;;;;0.90;99.90;;;;;;4992887;28;19926;-71
2023/01/25 05:54:11;;;;;;;;;;;1.00;99.90;;;;;;4981027;28;19926;-71
2023/01/25 05:56:40;;;;;;;;;;;1.00;99.90;;;;;;4988794;28;19925;-70
2023/01/25 05:59:09;;;;;;;;;;;1.00;99.90;;;;;;4989903;28;19929;-70
2023/01/25 06:01:37;;;;;;;;;;;0.90;99.90;;;;;;4980892;28;20385;-69
2023/01/25 06:04:04;;;;;;;;;;;0.80;99.90;;;;;;4975159;28;19926;-71
2023/01/25 06:06:31;;;;;;;;;;;0.80;99.90;;;;;;4987544;28;20032;-71
2023/01/25 06:08:57;;;;;;;;;;;0.80;99.90;;;;;;4992175;28;20363;-73
2023/01/25 06:11:25;;;;;;;;;;;0.90;99.90;;;;;;4984639;28;19949;-70
2023/01/25 06:13:55;;;;;;;;;;;0.90;99.90;;;;;;4977400;28;19933;-70
2023/01/25 06:16:22;;;;;;;;;;;0.90;99.90;;;;;;4989504;28;20020;-68
2023/01/25 06:19:18;;;;;;;;;;;0.90;99.90;;;;;;4972382;28;19932;-70
2023/01/25 06:21:51;;;;;;;;;;;0.80;99.90;;;;;;4984494;28;19934;-70
2023/01/25 06:24:18;;;;;;;;;;;0.70;99.90;;;;;;4987142;28;20308;-70
2023/01/25 06:26:45;;;;;;;;;;;0.80;99.90;;;;;;4986383;28;19961;-71
2023/01/25 06:29:13;;;;;;;;;;;0.80;99.90;;;;;;4988380;28;20396;-71
2023/01/25 06:31:40;;;;;;;;;;;0.80;99.90;;;;;;4990805;28;20512;-70
2023/01/25 06:34:07;;;;;;;;;;;0.80;99.90;;;;;;4989117;28;19932;-70
2023/01/25 06:36:34;;;;;;;;;;;0.80;99.90;;;;;;4985517;28;19926;-71
2023/01/25 06:39:01;;;;;;;;;;;0.80;99.90;;;;;;4985644;28;19926;-69
2023/01/25 06:41:28;;;;;;;;;;;0.80;99.90;;;;;;4989665;28;19926;-71
2023/01/25 06:43:55;;;;;;;;;;;0.80;99.90;;;;;;4988520;28;19930;-71
2023/01/25 06:46:23;;;;;;;;;;;0.70;99.90;;;;;;4989663;28;20293;-70
2023/01/25 06:48:50;;;;;;;;;;;0.70;99.90;;;;;;4990074;28;19933;-70
2023/01/25 06:51:17;;;;;;;;;;;0.70;99.90;;;;;;4982130;28;20364;-71
2023/01/25 06:53:44;;;;;;;;;;;0.70;99.90;;;;;;4988745;28;19933;-70
2023/01/25 06:56:12;;;;;;;;;;;0.70;99.90;;;;;;4982603;28;19930;-71
2023/01/25 06:58:39;;;;;;;;;;;0.70;99.90;;;;;;4981124;28;20359;-71
2023/01/25 07:01:07;;;;;;;;;;;0.80;99.90;;;;;;4977203;28;20449;-71
2023/01/25 07:03:35;;;;;;;;;;;0.80;99.90;;;;;;4980058;28;19926;-71
2023/01/25 07:06:03;;;;;;;;;;;0.90;99.90;;;;;;4983012;28;20396;-71
2023/01/25 07:08:30;;;;;;;;;;;0.80;99.90;;;;;;4989811;28;20348;-71
2023/01/25 07:10:58;;;;;;;;;;;0.80;99.90;;;;;;4978086;28;19936;-71
2023/01/25 07:13:25;;;;;;;;;;;0.80;99.90;;;;;;4990899;28;19930;-71
2023/01/25 07:15:53;;;;;;;;;;;0.80;99.90;;;;;;4984283;28;19945;-71
2023/01/25 07:18:20;;;;;;;;;;;0.80;99.90;;;;;;4981311;28;20021;-72
2023/01/25 07:20:48;;;;;;;;;;;0.80;99.90;;;;;;4984086;28;19926;-72
2023/01/25 07:23:15;;;;;;;;;;;0.80;99.90;;;;;;4987117;28;19926;-70
2023/01/25 07:25:45;;;;;;;;;;;0.90;99.90;;;;;;4983800;28;19930;-71
2023/01/25 07:28:12;;;;;;;;;;;0.90;99.90;;;;;;4973848;28;19937;-71
2023/01/25 07:30:39;;;;;;;;;;;0.90;99.90;;;;;;4983727;28;19988;-71
2023/01/25 07:33:05;;;;;;;;;;;0.80;99.90;;;;;;4972776;28;19926;-71
2023/01/25 07:35:33;;;;;;;;;;;0.80;99.90;;;;;;4983190;28;19954;-72
2023/01/25 07:38:01;;;;;;;;;;;0.80;99.90;;;;;;4972117;28;19933;-71
2023/01/25 07:40:28;;;;;;;;;;;0.80;99.90;;;;;;4973998;28;19925;-71
2023/01/25 07:42:54;;;;;;;;;;;0.90;99.90;;;;;;4989234;28;19933;-71
2023/01/25 07:45:28;;;;;;;;;;;0.90;99.90;;;;;;4986540;28;19925;-71
2023/01/25 07:47:55;;;;;;;;;;;0.90;99.90;;;;;;4990628;28;20347;-71
2023/01/25 07:50:22;;;;;;;;;;;0.90;99.90;;;;;;4984457;28;20391;-71
2023/01/25 07:52:49;;;;;;;;;;;0.90;99.90;;;;;;4987830;28;19926;-72
2023/01/25 07:55:17;;;;;;;;;;;0.90;99.90;;;;;;4988803;28;19925;-71
2023/01/25 07:57:44;;;;;;;;;;;0.90;99.90;;;;;;4981090;28;19926;-70
2023/01/25 08:00:12;;;;;;;;;;;0.90;99.90;;;;;;4988641;28;19961;-71
2023/01/25 08:02:39;;;;;;;;;;;0.90;99.90;;;;;;4985364;28;19930;-71
2023/01/25 08:05:06;;;;;;;;;;;0.90;99.90;;;;;;4976311;28;19930;-71
2023/01/25 08:07:32;;;;;;;;;;;0.90;99.90;;;;;;4987866;28;19926;-70
2023/01/25 08:09:59;;;;;;;;;;;0.90;99.90;;;;;;4983226;28;19926;-71
2023/01/25 08:12:27;;;;;;;;;;;0.90;99.90;;;;;;4982821;28;19934;-71
2023/01/25 08:14:54;;;;;;;;;;;0.90;99.90;;;;;;4984806;28;19925;-71
2023/01/25 08:17:21;;;;;;;;;;;0.80;99.90;;;;;;4989317;28;19925;-71
2023/01/25 08:19:48;;;;;;;;;;;0.90;99.90;;;;;;4978300;28;20012;-71
2023/01/25 08:22:14;;;;;;;;;;;0.80;99.90;;;;;;4982789;28;19926;-71
2023/01/25 08:24:41;;;;;;;;;;;0.80;99.90;;;;;;4988617;28;19930;-70
2023/01/25 08:27:08;;;;;;;;;;;0.80;99.90;;;;;;4985192;28;19926;-71
2023/01/25 08:29:36;;;;;;;;;;;0.80;99.90;;;;;;4989250;28;19926;-71
2023/01/25 08:32:05;;;;;;;;;;;0.80;99.90;;;;;;4987300;28;19941;-72
2023/01/25 08:34:31;;;;;;;;;;;0.80;99.90;;;;;;4987114;28;19925;-71
2023/01/25 08:36:58;;;;;;;;;;;0.90;99.90;;;;;;4986554;28;19958;-71
2023/01/25 08:39:25;;;;;;;;;;;0.90;99.90;;;;;;4982686;28;19934;-71
2023/01/25 08:41:52;;;;;;;;;;;0.90;99.90;;;;;;4988509;28;19933;-71
2023/01/25 08:44:21;;;;;;;;;;;0.90;99.90;;;;;;4985709;28;19933;-69
2023/01/25 08:46:49;;;;;;;;;;;0.90;99.90;;;;;;4984298;28;19933;-71
2023/01/25 08:49:16;;;;;;;;;;;0.90;99.90;;;;;;4984377;28;19930;-70
2023/01/25 08:51:43;;;;;;;;;;;0.90;99.90;;;;;;4983166;28;19926;-70
2023/01/25 08:54:11;;;;;;;;;;;0.80;99.90;;;;;;4990319;28;19988;-71
2023/01/25 08:56:39;;;;;;;;;;;0.80;99.90;;;;;;4985370;28;19937;-69
2023/01/25 08:59:06;;;;;;;;;;;0.80;99.90;;;;;;4987737;28;19925;-71
2023/01/25 09:01:32;;;;;;;;;;;0.80;99.90;;;;;;4990802;28;19933;-71
2023/01/25 09:04:01;;;;;;;;;;;0.80;99.90;;;;;;4980464;28;19926;-70
2023/01/25 09:06:28;;;;;;;;;;;0.80;99.90;;;;;;4981405;28;19926;-70
2023/01/25 09:08:54;;;;;;;;;;;0.90;99.90;;;;;;4990157;28;19926;-71
2023/01/25 09:11:22;;;;;;;;;;;0.90;99.90;;;;;;4989833;28;20324;-71
2023/01/25 09:13:50;;;;;;;;;;;0.90;99.90;;;;;;4990916;28;19930;-71
2023/01/25 09:16:19;;;;;;;;;;;0.90;99.90;;;;;;4988635;28;20396;-69
2023/01/25 09:18:46;;;;;;;;;;;0.80;99.90;;;;;;4980727;28;20021;-71
2023/01/25 09:21:16;;;;;;;;;;;0.90;99.90;;;;;;4984253;28;19933;-69
2023/01/25 09:23:43;;;;;;;;;;;0.90;99.90;;;;;;4991488;28;19930;-70
2023/01/25 09:26:11;;;;;;;;;;;0.80;99.90;;;;;;4986541;28;19965;-69
2023/01/25 09:28:37;;;;;;;;;;;0.90;99.90;;;;;;4991869;28;20359;-71
2023/01/25 09:31:05;;;;;;;;;;;0.90;99.90;;;;;;4990293;28;19933;-71
2023/01/25 09:33:52;;;;;;;;;;;1.00;99.90;;;;;;4988044;28;20018;-70
2023/01/25 09:36:20;;;;;;;;;;;0.90;99.90;;;;;;4986675;28;19932;-69
2023/01/25 09:38:47;;;;;;;;;;;0.90;99.90;;;;;;4987303;28;20435;-70
2023/01/25 09:41:21;;;;;;;;;;;0.90;99.90;;;;;;4992190;28;19926;-70
2023/01/25 09:43:54;;;;;;;;;;;0.90;99.90;;;;;;4978669;28;19926;-71
2023/01/25 09:46:24;;;;;;;;;;;0.90;99.90;;;;;;4989871;28;19926;-70
2023/01/25 09:48:56;;;;;;;;;;;0.90;99.90;;;;;;4987829;28;19926;-71
2023/01/25 09:51:26;;;;;;;;;;;1.00;99.90;;;;;;4990072;28;19933;-72
2023/01/25 09:53:55;;;;;;;;;;;1.00;99.90;;;;;;4980299;28;19929;-71
2023/01/25 09:56:24;;;;;;;;;;;1.00;99.90;;;;;;4988290;28;19933;-70
2023/01/25 09:58:53;;;;;;;;;;;1.00;99.90;;;;;;4990030;28;19925;-71
2023/01/25 10:01:25;;;;;;;;;;;1.10;99.90;;;;;;4990598;28;19948;-71
2023/01/25 10:03:54;;;;;;;;;;;1.00;99.90;;;;;;4976137;28;19933;-71
2023/01/25 10:06:23;;;;;;;;;;;1.00;99.90;;;;;;4982855;28;19926;-71
2023/01/25 10:08:57;;;;;;;;;;;0.90;99.90;;;;;;4989550;28;19925;-69
2023/01/25 10:11:26;;;;;;;;;;;0.90;99.90;;;;;;4983532;28;19926;-72
2023/01/25 10:13:54;;;;;;;;;;;0.80;99.90;;;;;;4983178;28;19941;-71
2023/01/25 10:16:24;;;;;;;;;;;0.70;99.90;;;;;;4984934;28;19930;-70
2023/01/25 10:18:55;;;;;;;;;;;0.80;99.90;;;;;;4987690;28;19949;-72
2023/01/25 10:21:25;;;;;;;;;;;0.90;99.90;;;;;;4989135;28;19934;-71
2023/01/25 10:24:10;;;;;;;;;;;0.90;99.90;;;;;;4985303;28;19925;-71
2023/01/25 10:26:38;;;;;;;;;;;0.90;99.90;;;;;;4984373;28;19938;-70
2023/01/25 10:29:10;;;;;;;;;;;0.80;99.90;;;;;;4986018;28;19933;-71
2023/01/25 10:31:40;;;;;;;;;;;0.80;99.90;;;;;;4982884;28;19926;-72
2023/01/25 10:34:13;;;;;;;;;;;0.90;99.90;;;;;;4983877;28;19925;-70
2023/01/25 10:36:40;;;;;;;;;;;0.90;99.90;;;;;;4985826;28;19937;-71
2023/01/25 10:39:10;;;;;;;;;;;0.90;99.90;;;;;;4987269;28;19925;-72
2023/01/25 10:41:39;;;;;;;;;;;0.90;99.90;;;;;;4987412;28;19934;-71
2023/01/25 10:44:23;;;;;;;;;;;0.90;99.90;;;;;;4991956;28;19933;-70
2023/01/25 10:46:53;;;;;;;;;;;0.90;99.90;;;;;;4988683;28;19926;-70
2023/01/25 10:49:23;;;;;;;;;;;0.90;99.90;;;;;;4981925;28;19985;-70
2023/01/25 10:51:49;;;;;;;;;;;1.00;99.90;;;;;;4987032;28;19926;-70
2023/01/25 10:54:18;;;;;;;;;;;1.00;99.90;;;;;;4988477;28;20026;-71
2023/01/25 10:56:46;;;;;;;;;;;0.90;99.90;;;;;;4989267;28;20471;-71
2023/01/25 10:59:17;;;;;;;;;;;0.80;99.90;;;;;;4983888;28;19930;-69
2023/01/25 11:01:44;;;;;;;;;;;0.80;99.90;;;;;;4991041;28;20423;-71
2023/01/25 11:04:22;;;;;;;;;;;0.80;99.90;;;;;;4989028;28;20412;-71
2023/01/25 11:06:50;;;;;;;;;;;0.80;99.90;;;;;;4985997;28;20447;-70
2023/01/25 11:09:31;;;;;;;;;;;0.80;99.90;;;;;;4985580;28;20020;-71
2023/01/25 11:11:59;;;;;;;;;;;0.90;99.90;;;;;;4969547;28;19936;-71
2023/01/25 11:14:27;;;;;;;;;;;0.90;99.90;;;;;;4988121;28;19925;-70
2023/01/25 11:16:54;;;;;;;;;;;1.00;99.90;;;;;;4965232;28;20368;-69
2023/01/25 11:19:24;;;;;;;;;;;1.00;99.90;;;;;;4981014;28;19930;-71
2023/01/25 11:21:52;;;;;;;;;;;1.10;99.90;;;;;;4989813;28;20300;-72
2023/01/25 11:24:18;;;;;;;;;;;1.10;99.90;;;;;;4979917;28;20016;-69
2023/01/25 11:26:47;;;;;;;;;;;1.00;99.90;;;;;;4988882;28;19925;-71
2023/01/25 11:29:15;;;;;;;;;;;1.00;99.90;;;;;;4980293;28;19934;-71
2023/01/25 11:31:44;;;;;;;;;;;1.10;99.90;;;;;;4985462;28;19931;-71
2023/01/25 11:34:12;;;;;;;;;;;1.10;99.90;;;;;;4989585;28;19926;-72
2023/01/25 11:36:42;;;;;;;;;;;1.10;99.90;;;;;;4976403;28;19947;-71
2023/01/25 11:39:13;;;;;;;;;;;1.10;99.90;;;;;;4988762;28;19930;-70
2023/01/25 11:41:48;;;;;;;;;;;1.10;99.90;;;;;;4986499;28;19941;-71
2023/01/25 11:44:25;;;;;;;;;;;1.10;99.90;;;;;;4990878;28;19930;-71
2023/01/25 11:46:59;;;;;;;;;;;1.00;99.90;;;;;;4983927;28;19926;-71
2023/01/25 11:49:32;;;;;;;;;;;1.00;99.90;;;;;;4987631;28;19930;-71
2023/01/25 11:52:06;;;;;;;;;;;0.90;99.90;;;;;;4983158;28;19925;-69
2023/01/25 11:54:42;;;;;;;;;;;0.90;99.90;;;;;;4983903;28;19929;-71
2023/01/25 11:57:17;;;;;;;;;;;0.90;99.90;;;;;;4983250;28;19964;-71
2023/01/25 11:59:53;;;;;;;;;;;0.90;99.90;;;;;;4989588;28;20351;-71
2023/01/25 12:02:32;;;;;;;;;;;0.90;99.90;;;;;;4988417;28;19933;-71
2023/01/25 12:05:05;;;;;;;;;;;0.90;99.90;;;;;;4982945;28;19929;-70
2023/01/25 12:07:39;;;;;;;;;;;0.70;99.90;;;;;;4982216;28;19933;-71
2023/01/25 12:10:17;;;;;;;;;;;0.60;99.90;;;;;;4986057;28;19973;-71
2023/01/25 12:12:50;;;;;;;;;;;0.50;99.90;;;;;;4981964;28;19925;-70
2023/01/25 12:15:24;;;;;;;;;;;0.50;99.90;;;;;;4988058;28;19925;-71
2023/01/25 12:17:58;;;;;;;;;;;0.60;99.90;;;;;;4983891;28;19934;-70
2023/01/25 12:20:31;;;;;;;;;;;0.50;99.90;;;;;;4988680;28;20213;-71
2023/01/25 12:23:08;;;;;;;;;;;0.50;99.90;;;;;;4987117;28;19980;-72
2023/01/25 12:25:41;;;;;;;;;;;0.60;99.90;;;;;;4975597;28;20387;-71
2023/01/25 12:28:10;;;;;;;;;;;0.70;99.90;;;;;;4987182;28;19930;-71
2023/01/25 12:30:42;;;;;;;;;;;0.70;99.90;;;;;;4974432;28;20465;-71
2023/01/25 12:33:12;;;;;;;;;;;0.60;99.90;;;;;;4987060;28;19934;-71
2023/01/25 12:35:40;;;;;;;;;;;0.70;99.90;;;;;;4988540;28;20413;-71
2023/01/25 12:38:10;;;;;;;;;;;0.80;99.90;;;;;;4991562;28;19930;-71
2023/01/25 12:40:42;;;;;;;;;;;0.80;99.90;;;;;;4991144;28;19926;-72
2023/01/25 12:43:13;;;;;;;;;;;0.90;99.90;;;;;;4988635;28;19926;-72
2023/01/25 12:45:44;;;;;;;;;;;0.90;99.90;;;;;;4979152;28;19926;-71
2023/01/25 12:48:14;;;;;;;;;;;0.80;99.90;;;;;;4982650;28;20020;-71
2023/01/25 12:50:42;;;;;;;;;;;0.90;99.90;;;;;;4990957;28;19925;-69
2023/01/25 12:53:13;;;;;;;;;;;0.90;99.90;;;;;;4990359;28;19934;-71
2023/01/25 12:55:40;;;;;;;;;;;0.80;99.90;;;;;;4986577;28;19926;-72
2023/01/25 12:58:12;;;;;;;;;;;0.80;99.90;;;;;;4990984;28;19925;-71
2023/01/25 13:00:44;;;;;;;;;;;0.70;99.90;;;;;;4993294;28;19926;-72
2023/01/25 13:03:17;;;;;;;;;;;0.80;99.90;;;;;;4988494;28;19972;-71
2023/01/25 13:05:47;;;;;;;;;;;0.90;99.90;;;;;;4988986;28;19930;-73
2023/01/25 13:08:23;;;;;;;;;;;0.90;99.90;;;;;;4990427;28;19925;-71
2023/01/25 13:10:52;;;;;;;;;;;0.90;99.90;;;;;;4985122;28;19927;-71
2023/01/25 13:13:20;;;;;;;;;;;0.90;99.90;;;;;;4985789;28;19926;-72
2023/01/25 13:15:49;;;;;;;;;;;0.90;99.90;;;;;;4982721;28;19933;-72
2023/01/25 13:18:34;;;;;;;;;;;1.00;99.90;;;;;;4983052;28;19969;-72
2023/01/25 13:21:03;;;;;;;;;;;1.00;99.90;;;;;;4975129;28;19965;-71
2023/01/25 13:23:31;;;;;;;;;;;1.00;99.90;;;;;;4968948;28;19937;-71
2023/01/25 13:26:31;;;;;;;;;;;0.90;99.90;;;;;;4992508;28;19926;-71
2023/01/25 13:28:59;;;;;;;;;;;0.80;99.90;;;;;;4982625;28;19926;-71
2023/01/25 13:31:47;;;;;;;;;;;0.70;99.90;;;;;;4990707;28;19934;-72
2023/01/25 13:34:34;;;;;;;;;;;0.80;99.90;;;;;;4990177;28;19926;-71
2023/01/25 13:37:01;;;;;;;;;;;0.70;99.90;;;;;;4984825;28;19926;-71
2023/01/25 13:39:41;;;;;;;;;;;0.70;99.90;;;;;;4992310;28;19925;-72
2023/01/25 13:42:18;;;;;;;;;;;0.70;99.90;;;;;;4976376;28;19949;-71
2023/01/25 13:44:46;;;;;;;;;;;0.70;99.90;;;;;;4992831;28;19930;-71
2023/01/25 13:47:16;;;;;;;;;;;0.70;99.90;;;;;;4983509;28;20471;-71
2023/01/25 13:49:44;;;;;;;;;;;0.70;99.90;;;;;;4990397;28;20025;-71
2023/01/25 13:52:14;;;;;;;;;;;0.80;99.90;;;;;;4986926;28;19972;-71
2023/01/25 13:54:44;;;;;;;;;;;0.80;99.90;;;;;;4986775;28;19933;-72
2023/01/25 13:57:12;;;;;;;;;;;0.80;99.90;;;;;;4985785;28;19927;-71
2023/01/25 13:59:39;;;;;;;;;;;0.80;99.90;;;;;;4987697;28;19930;-71
2023/01/25 14:02:12;;;;;;;;;;;0.90;99.90;;;;;;4990189;28;19977;-71
2023/01/25 14:04:40;;;;;;;;;;;0.80;99.90;;;;;;4985999;28;20036;-71
2023/01/25 14:07:14;;;;;;;;;;;0.70;99.90;;;;;;4977630;28;19932;-69
2023/01/25 14:09:42;;;;;;;;;;;0.60;99.90;;;;;;4982214;28;19952;-72
2023/01/25 14:12:10;;;;;;;;;;;0.60;99.90;;;;;;4985947;28;19933;-71
2023/01/25 14:14:38;;;;;;;;;;;0.60;99.90;;;;;;4989739;28;20399;-72
2023/01/25 14:17:13;;;;;;;;;;;0.60;99.90;;;;;;4990966;28;19936;-72
2023/01/25 14:19:43;;;;;;;;;;;0.60;99.90;;;;;;4981430;28;19977;-72
2023/01/25 14:22:11;;;;;;;;;;;0.60;99.90;;;;;;4983672;28;19965;-72
2023/01/25 14:24:38;;;;;;;;;;;0.60;99.90;;;;;;4987777;28;19926;-71
2023/01/25 14:27:05;;;;;;;;;;;0.60;99.90;;;;;;4992349;28;19926;-71
2023/01/25 14:29:33;;;;;;;;;;;0.70;99.90;;;;;;4980695;28;19926;-72
2023/01/25 14:32:00;;;;;;;;;;;0.70;99.90;;;;;;4983797;28;19941;-71
2023/01/25 14:34:26;;;;;;;;;;;0.70;99.90;;;;;;4987432;28;19930;-70
2023/01/25 14:37:07;;;;;;;;;;;0.70;99.90;;;;;;4982930;28;19960;-70
2023/01/25 14:39:34;;;;;;;;;;;0.70;99.90;;;;;;4988926;28;19933;-72
2023/01/25 14:42:03;;;;;;;;;;;0.70;99.90;;;;;;4979045;28;19984;-72
2023/01/25 14:44:30;;;;;;;;;;;0.60;99.90;;;;;;4992242;28;19933;-72
2023/01/25 14:47:15;;;;;;;;;;;0.70;99.90;;;;;;4989807;28;20000;-72
2023/01/25 14:49:42;;;;;;;;;;;0.70;99.90;;;;;;4986526;28;19926;-71
2023/01/25 14:52:13;;;;;;;;;;;0.70;99.90;;;;;;4984868;28;20397;-72
2023/01/25 14:54:44;;;;;;;;;;;0.60;99.90;;;;;;4983477;28;19957;-71
2023/01/25 14:57:24;;;;;;;;;;;0.50;99.90;;;;;;4981664;28;19926;-72
2023/01/25 14:59:52;;;;;;;;;;;0.40;99.90;;;;;;4980652;28;19988;-71
2023/01/25 15:02:23;;;;;;;;;;;0.40;99.90;;;;;;4989348;28;19926;-72
2023/01/25 15:04:54;;;;;;;;;;;0.40;99.90;;;;;;4983473;28;19929;-71
2023/01/25 15:07:40;;;;;;;;;;;0.50;99.90;;;;;;4980932;28;20444;-70
2023/01/25 15:10:15;;;;;;;;;;;0.50;99.90;;;;;;4983781;28;19930;-71
2023/01/25 15:12:42;;;;;;;;;;;0.50;99.90;;;;;;4982199;28;19980;-72
2023/01/25 15:15:17;;;;;;;;;;;0.40;99.90;;;;;;4988074;28;19957;-71
2023/01/25 15:17:45;;;;;;;;;;;0.40;99.90;;;;;;4974812;28;19943;-72
2023/01/25 15:20:26;;;;;;;;;;;0.40;99.90;;;;;;4989162;28;20395;-72
2023/01/25 15:22:55;;;;;;;;;;;0.40;99.90;;;;;;4984592;28;20414;-71
2023/01/25 15:25:21;;;;;;;;;;;0.30;99.90;;;;;;4984883;28;20046;-70
2023/01/25 15:27:48;;;;;;;;;;;0.30;99.90;;;;;;4964085;28;19926;-71
2023/01/25 15:30:16;;;;;;;;;;;0.20;99.90;;;;;;4988029;28;19934;-72
2023/01/25 15:32:43;;;;;;;;;;;0.30;99.90;;;;;;4989932;28;19948;-73
2023/01/25 15:35:12;;;;;;;;;;;0.20;99.90;;;;;;4971035;28;21866;-73
2023/01/25 15:37:39;;;;;;;;;;;0.20;99.90;;;;;;4987318;28;20448;-73
2023/01/25 15:40:09;;;;;;;;;;;0.20;99.90;;;;;;4983737;28;19926;-72
2023/01/25 15:42:36;;;;;;;;;;;0.20;99.90;;;;;;4988589;28;20476;-72
2023/01/25 15:45:03;;;;;;;;;;;0.10;99.90;;;;;;4982320;28;19930;-71
2023/01/25 15:47:30;;;;;;;;;;;0.20;99.90;;;;;;4979063;28;20037;-71
2023/01/25 15:49:56;;;;;;;;;;;0.30;99.90;;;;;;4984861;28;19937;-72
2023/01/25 15:52:23;;;;;;;;;;;0.30;99.90;;;;;;4989637;28;20401;-72
2023/01/25 15:54:50;;;;;;;;;;;0.30;99.90;;;;;;4986866;28;19925;-71
2023/01/25 15:57:23;;;;;;;;;;;0.30;99.90;;;;;;4975832;28;19930;-73
2023/01/25 15:59:50;;;;;;;;;;;0.10;99.90;;;;;;4987904;28;19930;-72
2023/01/25 16:02:17;;;;;;;;;;;0.10;99.90;;;;;;4984380;28;19930;-73
2023/01/25 16:04:44;;;;;;;;;;;0.10;99.90;;;;;;4983947;28;20435;-73
2023/01/25 16:07:18;;;;;;;;;;;0.10;99.90;;;;;;4978994;28;20357;-73
2023/01/25 16:09:45;;;;;;;;;;;0.10;99.90;;;;;;4983970;28;19930;-73
2023/01/25 16:12:12;;;;;;;;;;;0.00;99.90;;;;;;4978001;28;19926;-73
2023/01/25 16:14:40;;;;;;;;;;;-0.10;99.90;;;;;;4984983;28;20316;-73
2023/01/25 16:17:15;;;;;;;;;;;-0.10;99.90;;;;;;4984153;28;19956;-73
2023/01/25 16:19:44;;;;;;;;;;;-0.10;99.90;;;;;;4976246;28;19930;-72
2023/01/25 16:22:11;;;;;;;;;;;-0.10;99.90;;;;;;4989480;28;19965;-74
2023/01/25 16:24:38;;;;;;;;;;;-0.10;99.90;;;;;;4982582;28;19961;-73
2023/01/25 16:27:05;;;;;;;;;;;-0.10;99.90;;;;;;4976572;28;19926;-72
2023/01/25 16:29:32;;;;;;;;;;;-0.10;99.90;;;;;;4986785;28;20309;-73
2023/01/25 16:32:00;;;;;;;;;;;-0.10;99.90;;;;;;4980619;28;19957;-72
2023/01/25 16:34:26;;;;;;;;;;;-0.20;99.90;;;;;;4985284;28;19934;-70
2023/01/25 16:36:53;;;;;;;;;;;-0.20;99.90;;;;;;4991406;28;19933;-71
2023/01/25 16:39:21;;;;;;;;;;;-0.30;99.90;;;;;;4986538;28;19925;-71
2023/01/25 16:41:48;;;;;;;;;;;-0.40;99.90;;;;;;4974740;28;19930;-72
2023/01/25 16:44:15;;;;;;;;;;;-0.40;99.90;;;;;;4971830;28;19926;-71
2023/01/25 16:46:42;;;;;;;;;;;-0.40;99.90;;;;;;4980397;28;19926;-72
2023/01/25 16:49:14;;;;;;;;;;;-0.50;99.90;;;;;;4987580;28;19929;-72
2023/01/25 16:51:40;;;;;;;;;;;-0.60;99.90;;;;;;4990136;28;19926;-72
2023/01/25 16:54:10;;;;;;;;;;;-0.60;99.90;;;;;;4987688;28;19956;-71
2023/01/25 16:56:37;;;;;;;;;;;-0.60;99.90;;;;;;4974932;28;19926;-72
2023/01/25 16:59:05;;;;;;;;;;;-0.60;99.90;;;;;;4970161;28;19933;-72
2023/01/25 17:01:32;;;;;;;;;;;-0.60;99.90;;;;;;4983790;28;20025;-71
2023/01/25 17:03:59;;;;;;;;;;;-0.50;99.90;;;;;;4986299;28;19929;-72
2023/01/25 17:06:28;;;;;;;;;;;-0.40;99.90;;;;;;4980945;28;19929;-71
2023/01/25 17:08:56;;;;;;;;;;;-0.40;99.90;;;;;;4976503;28;19927;-70
2023/01/25 17:11:22;;;;;;;;;;;-0.50;99.90;;;;;;4963392;28;19933;-72
2023/01/25 17:13:49;;;;;;;;;;;-0.50;99.90;;;;;;4982527;28;19934;-71
2023/01/25 17:16:16;;;;;;;;;;;-0.50;99.90;;;;;;4977204;28;19930;-76
2023/01/25 17:18:43;;;;;;;;;;;-0.50;99.90;;;;;;4977751;28;20394;-74
2023/01/25 17:21:11;;;;;;;;;;;-0.50;99.90;;;;;;4982146;28;19930;-77
2023/01/25 17:23:40;;;;;;;;;;;-0.50;99.90;;;;;;4986681;28;20381;-78
2023/01/25 17:26:07;;;;;;;;;;;-0.40;99.90;;;;;;4980816;28;19927;-76
2023/01/25 17:28:34;;;;;;;;;;;-0.40;99.90;;;;;;4991811;28;19929;-72
2023/01/25 17:31:01;;;;;;;;;;;-0.40;99.90;;;;;;4955779;28;19926;-72
2023/01/25 17:33:28;;;;;;;;;;;-0.40;99.90;;;;;;4992875;28;19930;-72
2023/01/25 17:35:57;;;;;;;;;;;-0.40;99.90;;;;;;4971901;28;19926;-70
2023/01/25 17:38:24;;;;;;;;;;;-0.40;99.90;;;;;;4969246;28;19926;-72
2023/01/25 17:40:53;;;;;;;;;;;-0.30;99.90;;;;;;4984809;28;19931;-72
2023/01/25 17:43:20;;;;;;;;;;;-0.30;99.90;;;;;;4989811;28;19926;-72
2023/01/25 17:45:46;;;;;;;;;;;-0.20;99.90;;;;;;4990559;28;19926;-74
2023/01/25 17:48:13;;;;;;;;;;;-0.20;99.90;;;;;;4985913;28;19934;-73
2023/01/25 17:50:40;;;;;;;;;;;-0.30;99.90;;;;;;4992032;28;19945;-73
2023/01/25 17:53:07;;;;;;;;;;;-0.40;99.90;;;;;;4985835;28;19961;-74
2023/01/25 17:55:35;;;;;;;;;;;-0.40;99.90;;;;;;4986347;28;20353;-73
2023/01/25 17:58:03;;;;;;;;;;;-0.50;99.90;;;;;;4969776;28;20024;-73
2023/01/25 18:00:30;;;;;;;;;;;-0.50;99.90;;;;;;4987314;28;19934;-83
2023/01/25 18:02:57;;;;;;;;;;;-0.50;99.90;;;;;;5021628;23;19925;-71
2023/01/25 18:05:24;;;;;;;;;;;-0.60;99.90;;;;;;5029587;28;19925;-68
2023/01/25 18:07:50;;;;;;;;;;;-0.60;99.90;;;;;;5016977;28;19933;-68
2023/01/25 18:10:17;;;;;;;;;;;-0.70;99.90;;;;;;5018149;28;19972;-68
2023/01/25 18:12:49;;;;;;;;;;;-0.70;99.90;;;;;;5009418;28;19925;-69
2023/01/25 18:15:19;;;;;;;;;;;-0.70;99.90;;;;;;5001623;28;19936;-67
2023/01/25 18:17:46;;;;;;;;;;;-0.70;99.90;;;;;;5002255;28;19926;-70
2023/01/25 18:20:13;;;;;;;;;;;-0.80;99.90;;;;;;5001565;28;19930;-69
2023/01/25 18:22:40;;;;;;;;;;;-0.70;99.90;;;;;;5002691;28;20025;-69
2023/01/25 18:25:26;;;;;;;;;;;-0.70;99.90;;;;;;5002117;28;20400;-69
2023/01/25 18:27:53;;;;;;;;;;;-0.70;99.90;;;;;;5001359;28;19926;-69
2023/01/25 18:30:29;;;;;;;;;;;-0.80;99.90;;;;;;5003467;28;19932;-69
2023/01/25 18:32:56;;;;;;;;;;;-0.80;99.90;;;;;;5015102;28;19925;-68
2023/01/25 18:35:23;;;;;;;;;;;-0.80;99.90;;;;;;5003486;28;19934;-68
2023/01/25 18:37:50;;;;;;;;;;;-0.70;99.90;;;;;;5005353;28;19933;-68
2023/01/25 18:40:18;;;;;;;;;;;-0.70;99.90;;;;;;4999287;28;19926;-68
2023/01/25 18:42:45;;;;;;;;;;;-0.80;99.90;;;;;;4997122;28;19926;-68
2023/01/25 18:45:12;;;;;;;;;;;-0.80;99.90;;;;;;4997839;28;19926;-69
2023/01/25 18:47:41;;;;;;;;;;;-0.80;99.90;;;;;;5004180;28;19929;-69